Time;durP1;ratioP1;P1;durP2;ratioP2;P2;SDS_P1;SDS_P2;PMS_P1;PMS_P2;Temp;Humidity;BMP_temperature;BMP_pressure;BME280_temperature;BME280_humidity;BME280_pressure;Samples;Min_cycle;Max_cycle;Signal;HPM_P1;HPM_P2
2021/01/14 00:00:35;;;;;;;7.80;3.62;;;;;;;5.58;84.11;100793.88;4455166;32;20053;-73
2021/01/14 00:03:04;;;;;;;6.32;3.20;;;;;;;5.64;84.10;100800.63;4464605;32;20084;-75
2021/01/14 00:05:30;;;;;;;6.95;3.35;;;;;;;5.60;82.90;100781.12;4456799;32;20026;-75
2021/01/14 00:07:56;;;;;;;6.82;4.03;;;;;;;5.44;82.64;100794.72;4454950;32;20060;-73
2021/01/14 00:10:21;;;;;;;6.22;3.37;;;;;;;5.33;83.01;100784.78;4457404;32;20111;-74
2021/01/14 00:12:48;;;;;;;6.00;3.50;;;;;;;5.19;83.82;100782.78;4461186;32;20350;-75
2021/01/14 00:15:15;;;;;;;7.65;3.60;;;;;;;5.17;84.70;100776.84;4455288;32;20093;-73
2021/01/14 00:17:42;;;;;;;6.80;3.70;;;;;;;5.15;84.27;100776.44;4452823;32;20064;-73
2021/01/14 00:20:10;;;;;;;8.90;3.90;;;;;;;5.30;83.80;100775.22;4459951;32;20413;-74
2021/01/14 00:22:36;;;;;;;7.35;3.90;;;;;;;5.26;84.45;100766.06;4456441;32;20428;-73
2021/01/14 00:25:03;;;;;;;7.55;3.92;;;;;;;5.29;84.50;100770.84;4456359;32;20093;-73
2021/01/14 00:27:29;;;;;;;7.62;3.85;;;;;;;5.39;85.19;100774.78;4461942;32;20097;-74
2021/01/14 00:29:55;;;;;;;7.93;3.87;;;;;;;5.35;84.50;100769.25;4455613;32;20143;-75
2021/01/14 00:32:21;;;;;;;7.55;4.20;;;;;;;5.44;84.96;100764.03;4461781;32;20049;-75
2021/01/14 00:34:46;;;;;;;7.03;3.92;;;;;;;5.39;84.24;100755.25;4409496;27;20100;-75
2021/01/14 00:39:58;;;;;;;;;;;;;;;5.32;83.54;100758.06;4396117;32;20083;-75
2021/01/14 00:42:23;;;;;;;7.28;3.87;;;;;;;5.25;83.25;100753.28;4399562;32;19962;-74
2021/01/14 00:44:49;;;;;;;7.85;4.78;;;;;;;5.18;83.88;100758.09;4394693;32;20414;-73
2021/01/14 00:47:15;;;;;;;6.03;3.45;;;;;;;5.22;83.55;100751.31;4386904;32;20442;-72
2021/01/14 00:49:41;;;;;;;5.45;3.10;;;;;;;5.25;83.62;100752.53;4398789;32;20027;-72
2021/01/14 00:52:10;;;;;;;5.18;3.20;;;;;;;5.11;83.17;100747.75;4395895;32;20500;-74
2021/01/14 00:54:39;;;;;;;7.10;4.00;;;;;;;5.04;83.67;100745.00;4397812;32;20039;-73
2021/01/14 00:57:08;;;;;;;7.32;3.80;;;;;;;5.11;84.34;100750.56;4397483;32;20038;-73
2021/01/14 00:59:34;;;;;;;7.35;3.87;;;;;;;5.17;84.27;100748.94;4391749;32;20089;-74
2021/01/14 01:02:00;;;;;;;6.18;3.53;;;;;;;5.25;84.47;100738.56;4396896;32;20085;-73
2021/01/14 01:04:25;;;;;;;7.32;3.97;;;;;;;5.33;84.01;100732.56;4394035;32;20465;-74
2021/01/14 01:06:51;;;;;;;7.45;3.95;;;;;;;5.41;84.30;100733.34;4393336;32;20427;-76
2021/01/14 01:09:20;;;;;;;11.32;4.47;;;;;;;5.45;83.96;100729.34;4396012;32;20069;-74
2021/01/14 01:11:46;;;;;;;6.93;3.90;;;;;;;5.49;83.76;100732.91;4395974;32;20061;-75
2021/01/14 01:14:11;;;;;;;7.00;4.28;;;;;;;5.43;83.66;100714.97;4393871;32;20034;-74
2021/01/14 01:16:37;;;;;;;8.02;4.25;;;;;;;5.55;84.26;100717.31;4393845;32;20070;-75
2021/01/14 01:19:03;;;;;;;7.50;4.40;;;;;;;5.64;84.15;100714.91;4394580;32;20141;-74
2021/01/14 01:21:28;;;;;;;7.30;4.10;;;;;;;5.69;83.47;100708.09;4392807;32;20117;-77
2021/01/14 01:23:54;;;;;;;7.15;4.03;;;;;;;5.59;84.41;100709.72;4398178;32;20046;-73
2021/01/14 01:26:20;;;;;;;5.82;3.85;;;;;;;5.52;83.87;100703.38;4392280;32;20046;-76
2021/01/14 01:28:46;;;;;;;7.85;4.37;;;;;;;5.43;83.64;100703.81;4397454;32;20152;-74
2021/01/14 01:31:13;;;;;;;7.90;4.25;;;;;;;5.55;83.85;100702.56;4395320;32;20038;-75
2021/01/14 01:33:40;;;;;;;6.87;3.97;;;;;;;5.55;84.99;100700.56;4396561;32;20039;-75
2021/01/14 01:36:07;;;;;;;6.60;3.80;;;;;;;5.62;84.79;100697.75;4395319;32;20108;-73
2021/01/14 01:38:33;;;;;;;7.07;4.03;;;;;;;5.83;84.80;100703.25;4393867;32;20074;-74
2021/01/14 01:41:01;;;;;;;7.25;4.00;;;;;;;5.80;84.87;100703.25;4401331;32;20381;-75
2021/01/14 01:43:28;;;;;;;6.28;3.92;;;;;;;5.81;83.69;100691.72;4390596;32;20113;-75
2021/01/14 01:45:54;;;;;;;6.20;4.10;;;;;;;5.75;82.70;100698.91;4394212;32;20039;-75
2021/01/14 01:48:21;;;;;;;8.27;4.12;;;;;;;5.77;82.40;100701.28;4390873;32;20340;-74
2021/01/14 01:50:49;;;;;;;6.87;4.22;;;;;;;5.79;83.08;100699.66;4395296;32;20240;-73
2021/01/14 01:53:15;;;;;;;7.80;4.28;;;;;;;5.67;83.47;100694.53;4396122;32;20105;-75
2021/01/14 01:55:45;;;;;;;8.20;4.12;;;;;;;5.68;84.15;100710.09;4397786;32;20535;-73
2021/01/14 01:58:13;;;;;;;7.87;4.43;;;;;;;5.65;83.73;100701.75;4395600;32;20042;-73
2021/01/14 02:00:39;;;;;;;6.62;3.80;;;;;;;5.72;85.05;100696.91;4394792;32;20048;-73
2021/01/14 02:03:05;;;;;;;7.72;4.35;;;;;;;5.86;85.03;100693.28;4395503;32;20074;-74
2021/01/14 02:05:32;;;;;;;8.52;4.35;;;;;;;5.90;84.26;100699.62;4395836;32;20056;-74
2021/01/14 02:10:38;;;;;;;6.93;3.92;;;;;;;6.09;83.58;100701.91;3988381;32;15024416;-75
2021/01/14 02:16:04;;;;;;;6.05;3.60;;;;;;;6.54;81.41;100700.78;3985341;32;15022394;-74
2021/01/14 02:18:30;;;;;;;6.57;3.92;;;;;;;6.54;81.41;100700.78;4446747;32;20341;-74
2021/01/14 02:21:06;;;;;;;5.78;3.42;;;;;;;6.11;82.75;100693.94;4445896;32;20018;-76
2021/01/14 02:23:59;;;;;;;4.22;2.92;;;;;;;6.11;83.40;100699.50;4446294;32;20045;-75
2021/01/14 02:26:27;;;;;;;4.40;2.65;;;;;;;6.07;83.17;100699.53;4445755;32;20089;-75
2021/01/14 02:28:54;;;;;;;6.03;3.75;;;;;;;5.99;82.58;100691.59;4445291;32;20020;-74
2021/01/14 02:31:21;;;;;;;5.62;3.65;;;;;;;6.01;83.46;100687.19;4446441;32;20114;-74
2021/01/14 02:33:50;;;;;;;6.22;3.58;;;;;;;6.06;83.68;100683.16;4439422;32;20097;-75
2021/01/14 02:36:17;;;;;;;5.35;3.35;;;;;;;6.11;83.61;100677.94;4432246;32;20080;-74
2021/01/14 02:38:42;;;;;;;5.28;3.30;;;;;;;6.09;82.64;100673.97;4426079;32;20060;-75
2021/01/14 02:41:08;;;;;;;5.62;3.12;;;;;;;6.02;82.07;100676.81;4428514;32;20085;-77
2021/01/14 02:43:35;;;;;;;4.53;3.05;;;;;;;6.00;83.50;100674.44;4427061;32;20790;-75
2021/01/14 02:46:02;;;;;;;4.75;3.47;;;;;;;5.98;83.55;100679.62;4430422;32;20030;-76
2021/01/14 02:48:34;;;;;;;5.40;3.03;;;;;;;5.89;82.88;100668.13;4426467;32;20125;-74
2021/01/14 02:51:05;;;;;;;4.82;3.10;;;;;;;5.97;83.71;100669.66;4427325;32;20037;-75
2021/01/14 02:53:32;;;;;;;6.95;3.80;;;;;;;6.01;84.49;100672.41;4430536;32;20052;-74
2021/01/14 02:55:59;;;;;;;5.28;3.28;;;;;;;6.09;84.79;100662.78;4431668;32;20113;-75
2021/01/14 02:58:26;;;;;;;5.15;2.85;;;;;;;6.20;84.60;100665.50;4428071;32;20525;-74
2021/01/14 03:00:52;;;;;;;3.90;2.70;;;;;;;6.26;84.34;100664.66;4429780;32;20434;-75
2021/01/14 03:03:17;;;;;;;5.05;3.17;;;;;;;6.20;83.39;100663.53;4430038;32;20101;-76
2021/01/14 03:05:43;;;;;;;4.65;3.17;;;;;;;6.10;83.59;100659.59;4430798;32;20350;-76
2021/01/14 03:08:09;;;;;;;4.05;2.85;;;;;;;6.05;83.17;100653.66;4428216;32;20409;-74
2021/01/14 03:10:34;;;;;;;4.68;2.75;;;;;;;6.00;83.07;100660.47;4430023;32;20084;-74
2021/01/14 03:13:00;;;;;;;5.22;3.20;;;;;;;6.04;84.15;100663.22;4426880;32;20034;-74
2021/01/14 03:15:25;;;;;;;4.75;2.92;;;;;;;6.11;83.87;100652.78;4430362;32;20631;-74
2021/01/14 03:17:53;;;;;;;5.57;3.50;;;;;;;6.06;83.69;100658.03;4429374;32;20072;-75
2021/01/14 03:20:19;;;;;;;7.18;3.95;;;;;;;6.01;82.86;100648.09;4426824;32;20387;-75
2021/01/14 03:22:45;;;;;;;8.13;4.25;;;;;;;6.07;83.94;100654.03;4428286;32;20034;-75
2021/01/14 03:25:11;;;;;;;7.60;4.12;;;;;;;6.17;84.64;100650.37;4429047;32;20054;-76
2021/01/14 03:27:38;;;;;;;6.03;3.42;;;;;;;6.26;84.46;100644.31;4416822;32;20441;-74
2021/01/14 03:30:06;;;;;;;10.00;4.22;;;;;;;6.34;84.35;100654.22;4418756;32;20133;-74
2021/01/14 03:32:32;;;;;;;7.40;4.10;;;;;;;6.37;83.54;100645.81;4416725;32;20011;-74
2021/01/14 03:34:57;;;;;;;6.65;3.80;;;;;;;6.32;83.21;100651.06;4419291;32;20093;-74
2021/01/14 03:37:23;;;;;;;7.12;4.10;;;;;;;6.34;83.64;100649.44;4418334;32;20053;-75
2021/01/14 03:39:49;;;;;;;7.53;4.10;;;;;;;6.40;83.89;100644.19;4419734;32;20470;-75
2021/01/14 03:42:19;;;;;;;6.93;4.15;;;;;;;6.40;82.89;100647.78;4418202;32;20026;-75
2021/01/14 03:44:45;;;;;;;9.05;4.55;;;;;;;6.36;82.79;100649.81;4416223;32;20026;-74
2021/01/14 03:47:11;;;;;;;7.90;4.10;;;;;;;6.36;83.97;100646.22;4418991;32;20030;-74
2021/01/14 03:49:36;;;;;;;8.02;4.45;;;;;;;6.39;84.03;100643.41;4419989;32;20066;-74
2021/01/14 03:52:03;;;;;;;8.55;4.82;;;;;;;6.46;84.10;100640.53;4416155;32;20045;-76
2021/01/14 03:54:29;;;;;;;6.75;4.03;;;;;;;6.49;83.60;100644.50;4416223;32;20060;-74
2021/01/14 03:56:54;;;;;;;8.05;4.07;;;;;;;6.51;83.76;100640.09;4414598;32;20109;-75
2021/01/14 03:59:20;;;;;;;7.37;4.25;;;;;;;6.48;82.92;100634.53;4415727;32;20052;-73
2021/01/14 04:01:45;;;;;;;6.60;4.30;;;;;;;6.53;83.66;100631.31;4414868;32;20045;-75
2021/01/14 04:04:11;;;;;;;6.95;4.50;;;;;;;6.50;82.99;100632.91;4413296;32;20042;-77
2021/01/14 04:06:37;;;;;;;7.20;3.95;;;;;;;6.44;82.52;100633.78;4416266;32;21282;-76
2021/01/14 04:09:05;;;;;;;7.00;3.80;;;;;;;6.45;83.11;100632.56;4415758;32;20411;-75
2021/01/14 04:11:31;;;;;;;5.30;3.47;;;;;;;6.37;82.88;100626.25;4417877;32;20034;-75
2021/01/14 04:13:57;;;;;;;6.55;3.37;;;;;;;6.37;83.31;100628.22;4418705;32;20127;-77
2021/01/14 04:16:22;;;;;;;6.35;3.50;;;;;;;6.37;83.38;100625.44;4420538;32;20414;-76
2021/01/14 04:18:48;;;;;;;5.32;3.55;;;;;;;6.40;83.54;100631.00;4409836;32;20445;-75
2021/01/14 04:21:15;;;;;;;4.80;2.65;;;;;;;6.43;83.51;100627.37;4414851;32;20027;-76
2021/01/14 04:23:42;;;;;;;5.55;2.58;;;;;;;6.51;83.42;100625.31;4418465;32;20107;-75
2021/01/14 04:26:08;;;;;;;4.72;2.50;;;;;;;6.41;83.23;100617.84;4417147;32;20030;-76
2021/01/14 04:28:33;;;;;;;4.78;2.97;;;;;;;6.39;83.30;100620.25;4417469;32;20400;-75
2021/01/14 04:30:59;;;;;;;5.22;2.65;;;;;;;6.34;83.20;100618.69;4418231;32;20507;-75
2021/01/14 04:33:25;;;;;;;7.07;3.62;;;;;;;6.29;83.34;100613.53;4417318;32;20046;-75
2021/01/14 04:35:54;;;;;;;5.07;2.95;;;;;;;6.29;83.70;100610.72;4416989;32;20446;-75
2021/01/14 04:38:22;;;;;;;4.32;2.60;;;;;;;6.30;83.65;100611.53;4415980;32;20067;-75
2021/01/14 04:40:56;;;;;;;6.10;2.37;;;;;;;6.31;83.60;100608.31;4416789;32;20414;-75
2021/01/14 04:43:23;;;;;;;5.30;2.40;;;;;;;6.32;83.49;100607.13;4416772;32;20065;-75
2021/01/14 04:45:52;;;;;;;4.70;2.70;;;;;;;6.37;82.83;100611.47;4415809;32;20464;-76
2021/01/14 04:48:18;;;;;;;5.05;2.72;;;;;;;6.33;82.80;100603.13;4419147;32;20142;-76
2021/01/14 04:50:46;;;;;;;4.93;2.80;;;;;;;6.33;82.86;100607.91;4419769;32;20030;-76
2021/01/14 04:53:13;;;;;;;4.97;2.65;;;;;;;6.30;82.67;100605.94;4417561;32;20136;-77
2021/01/14 04:55:43;;;;;;;4.93;2.95;;;;;;;6.34;83.17;100603.91;4417736;32;20090;-77
2021/01/14 04:58:16;;;;;;;5.55;2.80;;;;;;;6.32;83.04;100603.53;4414726;32;20058;-77
2021/01/14 05:00:47;;;;;;;5.78;2.92;;;;;;;6.37;83.32;100600.28;4415116;32;20070;-76
2021/01/14 05:03:23;;;;;;;5.87;3.08;;;;;;;6.37;83.39;100595.50;4416922;32;20045;-75
2021/01/14 05:05:50;;;;;;;4.82;2.83;;;;;;;6.31;82.26;100601.94;4420119;32;20064;-77
2021/01/14 05:08:17;;;;;;;5.45;2.92;;;;;;;6.32;83.31;100601.53;4417495;32;20081;-76
2021/01/14 05:10:44;;;;;;;5.35;2.67;;;;;;;6.31;83.14;100596.34;4414558;32;20092;-75
2021/01/14 05:13:11;;;;;;;4.07;2.25;;;;;;;6.20;82.55;100598.47;4414261;32;20038;-76
2021/01/14 05:15:38;;;;;;;5.68;2.70;;;;;;;6.24;83.55;100597.22;4415690;32;20073;-76
2021/01/14 05:18:04;;;;;;;8.80;3.30;;;;;;;6.28;83.92;100595.19;4416388;32;20491;-74
2021/01/14 05:20:30;;;;;;;3.83;2.47;;;;;;;6.32;83.78;100597.97;4418272;32;20086;-76
2021/01/14 05:22:59;;;;;;;3.97;2.60;;;;;;;6.32;83.65;100598.72;4415925;32;20401;-76
2021/01/14 05:25:25;;;;;;;7.57;3.03;;;;;;;6.35;83.65;100589.53;4416119;32;20045;-76
2021/01/14 05:27:51;;;;;;;4.07;2.40;;;;;;;6.39;83.83;100592.28;4417015;32;20087;-77
2021/01/14 05:30:18;;;;;;;3.10;1.95;;;;;;;6.37;83.89;100586.31;4418390;32;20101;-76
2021/01/14 05:32:45;;;;;;;4.72;2.55;;;;;;;6.40;83.73;100586.28;4416846;32;20030;-76
2021/01/14 05:35:14;;;;;;;4.60;2.80;;;;;;;6.38;83.57;100585.13;4416776;32;20053;-76
2021/01/14 05:37:42;;;;;;;3.75;2.60;;;;;;;6.41;83.74;100590.66;4417620;32;20042;-78
2021/01/14 05:40:11;;;;;;;4.35;2.45;;;;;;;6.28;83.37;100592.38;4418794;32;20053;-77
2021/01/14 05:42:38;;;;;;;5.32;2.80;;;;;;;6.24;84.00;100583.25;4414561;32;20058;-75
2021/01/14 05:45:06;;;;;;;4.80;3.10;;;;;;;6.28;84.55;100581.22;4414911;32;20050;-76
2021/01/14 05:47:32;;;;;;;4.85;3.20;;;;;;;6.28;84.54;100581.22;4414845;32;20401;-76
2021/01/14 05:52:35;;;;;;;3.95;2.40;;;;;;;6.60;83.43;100584.47;3986812;32;15148989;-75
2021/01/14 05:57:39;;;;;;;5.93;2.50;;;;;;;6.59;83.23;100579.31;3994311;32;15023633;-76
2021/01/14 06:02:44;;;;;;;3.90;2.10;;;;;;;6.51;83.67;100575.00;4008264;31;15015877;-78
2021/01/14 06:05:27;;;;;;;4.03;2.72;;;;;;;6.51;83.67;100575.00;4450483;32;20443;-76
2021/01/14 06:07:54;;;;;;;2.90;2.30;;;;;;;6.17;85.24;100562.97;4448496;32;20109;-76
2021/01/14 06:10:35;;;;;;;3.65;2.47;;;;;;;6.18;85.23;100559.75;4457101;32;20539;-77
2021/01/14 06:13:01;;;;;;;3.40;2.28;;;;;;;6.36;84.76;100556.78;4455775;32;20030;-76
2021/01/14 06:15:27;;;;;;;4.35;2.25;;;;;;;6.39;85.01;100555.97;4455523;32;20489;-76
2021/01/14 06:17:54;;;;;;;3.85;2.40;;;;;;;6.45;84.54;100557.91;4456172;32;20050;-77
2021/01/14 06:20:19;;;;;;;3.83;3.00;;;;;;;6.46;84.49;100553.09;4455781;32;20013;-78
2021/01/14 06:22:45;;;;;;;4.12;1.98;;;;;;;6.46;84.17;100553.09;4450675;32;20114;-75
2021/01/14 06:25:12;;;;;;;4.15;2.03;;;;;;;6.46;84.13;100559.47;4455985;32;20032;-75
2021/01/14 06:27:38;;;;;;;3.15;2.20;;;;;;;6.46;83.86;100564.25;4454064;32;20099;-77
2021/01/14 06:30:07;;;;;;;5.22;2.55;;;;;;;6.46;84.53;100551.09;4449907;32;20029;-78
2021/01/14 06:32:37;;;;;;;4.15;2.33;;;;;;;6.53;84.34;100555.81;4451885;32;20066;-77
2021/01/14 06:35:05;;;;;;;6.65;2.12;;;;;;;6.46;83.96;100556.69;4442101;32;20048;-75
2021/01/14 06:37:37;;;;;;;3.28;2.10;;;;;;;6.46;84.08;100550.28;4439227;32;20061;-76
2021/01/14 06:40:05;;;;;;;4.30;1.73;;;;;;;6.46;84.84;100553.88;4441443;32;20160;-76
2021/01/14 06:42:34;;;;;;;2.42;1.55;;;;;;;6.44;83.91;100561.09;4438559;32;20049;-75
2021/01/14 06:47:42;;;;;;;3.33;1.55;;;;;;;6.78;83.20;100564.72;3986600;32;15022264;-76
2021/01/14 06:50:24;;;;;;;3.92;2.05;;;;;;;6.78;83.20;100564.72;4446076;32;20058;-76
2021/01/14 06:55:34;;;;;;;4.45;1.67;;;;;;;6.38;83.85;100562.75;3987402;32;15022834;-76
2021/01/14 06:58:16;;;;;;;4.90;2.00;;;;;;;6.34;84.37;100562.78;4444723;32;20041;-75
2021/01/14 07:00:45;;;;;;;4.62;2.33;;;;;;;6.35;83.86;100567.16;4443009;32;20049;-75
2021/01/14 07:18:56;;;;;;;3.17;1.98;;;;;;;6.75;82.60;100597.09;3994793;32;15023589;-76
2021/01/14 07:21:42;;;;;;;3.40;2.10;;;;;;;6.75;82.60;100597.09;4446920;32;20029;-77
2021/01/14 07:26:46;;;;;;;3.85;2.70;;;;;;;6.63;83.18;100582.87;3982776;32;15039585;-76
2021/01/14 07:29:14;;;;;;;4.85;2.53;;;;;;;6.63;83.18;100582.87;4437388;32;20069;-76
2021/01/14 07:37:01;;;;;;;4.70;2.78;;;;;;;6.46;82.87;100581.03;3987802;32;15025495;-76
2021/01/14 07:39:54;;;;;;;5.80;2.17;;;;;;;6.46;82.87;100581.03;4445954;32;20177;-77
2021/01/14 07:42:24;;;;;;;4.20;2.45;;;;;;;5.92;83.36;100586.31;4444127;32;20069;-77
2021/01/14 07:47:32;;;;;;;4.03;2.53;;;;;;;6.07;84.26;100584.19;3991406;32;15023457;-79
2021/01/14 07:50:17;;;;;;;3.97;2.33;;;;;;;6.01;84.40;100574.66;4445796;32;20055;-77
2021/01/14 07:52:45;;;;;;;4.40;2.40;;;;;;;6.04;84.56;100582.22;4443133;32;20362;-79
2021/01/14 07:55:11;;;;;;;4.43;2.50;;;;;;;6.00;83.91;100589.84;4446554;32;20219;-78
2021/01/14 08:03:42;;;;;;;4.90;3.30;;;;;;;6.11;82.36;100610.13;3991893;32;15023948;-81
2021/01/14 08:06:17;;;;;;;4.43;3.25;;;;;;;6.11;82.36;100610.13;4446319;32;20037;-83
2021/01/14 08:09:03;;;;;;;5.00;3.53;;;;;;;5.71;83.83;100600.38;4446427;32;20041;-80
2021/01/14 08:11:32;;;;;;;8.43;4.00;;;;;;;5.69;83.61;100607.59;4441842;32;20508;-79
2021/01/14 08:14:16;;;;;;;5.78;4.25;;;;;;;5.66;83.86;100611.19;4440209;32;20052;-83
2021/01/14 08:24:41;;;;;;;6.18;4.00;;;;;;;5.74;81.59;100610.75;3982868;32;15024343;-79
2021/01/14 08:43:18;;;;;;;9.48;5.25;;;;;;;4.62;82.88;100627.97;3986071;32;15025018;-79
2021/01/14 08:48:35;;;;;;;12.50;6.93;;;;;;;4.41;83.61;100627.19;3983705;32;15030983;-79
2021/01/14 08:51:02;;;;;;;10.32;5.40;;;;;;;4.41;83.61;100627.19;4441156;32;20098;-78
2021/01/14 08:56:08;;;;;;;17.15;7.28;;;;;;;3.95;85.01;100630.78;4003608;31;15020105;-78
2021/01/14 09:01:17;;;;;;;10.82;6.90;;;;;;;4.17;84.41;100648.28;3983510;32;15022832;-79
2021/01/14 09:03:43;;;;;;;10.57;5.55;;;;;;;4.17;84.41;100648.28;4436700;32;20384;-77
2021/01/14 09:06:09;;;;;;;10.10;5.37;;;;;;;3.66;85.29;100645.06;4434050;32;20357;-74
2021/01/14 09:08:34;;;;;;;13.23;5.93;;;;;;;3.59;85.76;100636.72;4433334;32;20037;-74
2021/01/14 09:11:00;;;;;;;16.17;6.65;;;;;;;3.49;85.99;100640.22;4429828;32;20089;-75
2021/01/14 09:13:29;;;;;;;13.85;6.53;;;;;;;3.46;86.28;100636.25;4430832;32;20230;-76
2021/01/14 09:15:57;;;;;;;11.88;6.12;;;;;;;3.49;86.43;100646.59;4418978;32;20452;-77
2021/01/14 09:18:43;;;;;;;13.30;6.35;;;;;;;3.46;86.49;100652.16;4425881;32;20046;-75
2021/01/14 09:21:12;;;;;;;16.33;7.30;;;;;;;3.40;86.60;100648.97;4429599;32;20086;-79
2021/01/14 09:23:39;;;;;;;15.07;7.12;;;;;;;3.34;86.54;100655.28;4435803;32;20037;-74
2021/01/14 09:28:54;;;;;;;16.80;7.10;;;;;;;3.93;85.93;100669.34;3964527;32;15254517;-75
2021/01/14 09:31:21;;;;;;;12.52;6.10;;;;;;;3.93;85.93;100669.34;4410572;32;20410;-75
2021/01/14 09:33:49;;;;;;;11.88;6.90;;;;;;;3.40;87.12;100662.88;4409866;32;20067;-75
2021/01/14 09:41:34;;;;;;;17.58;7.93;;;;;;;3.87;85.81;100678.50;3983896;32;15188039;-74
2021/01/14 09:49:14;;;;;;;27.37;10.88;;;;;;;3.90;85.78;100683.28;3985089;32;15026754;-76
2021/01/14 09:51:42;;;;;;;21.50;9.80;;;;;;;3.51;86.67;100693.50;4442469;32;20153;-77
2021/01/14 09:54:09;;;;;;;20.98;9.77;;;;;;;3.52;86.57;100692.31;4437794;32;20022;-76
2021/01/14 09:56:39;;;;;;;19.65;9.02;;;;;;;3.47;86.68;100701.06;4431280;32;20109;-76
2021/01/14 09:59:41;;;;;;;17.48;8.88;;;;;;;3.40;86.57;100707.38;4442120;32;20339;-75
2021/01/14 10:04:56;;;;;;;17.67;8.52;;;;;;;3.98;85.41;100729.41;3986570;32;15027223;-74
2021/01/14 10:07:21;;;;;;;12.75;6.45;;;;;;;3.98;85.41;100729.41;4440477;32;20178;-75
2021/01/14 10:09:51;;;;;;;13.15;5.93;;;;;;;3.53;86.38;100730.88;4434001;32;20134;-77
2021/01/14 10:12:17;;;;;;;12.25;5.95;;;;;;;3.54;86.46;100726.09;4451190;32;20045;-74
2021/01/14 10:14:43;;;;;;;11.98;5.20;;;;;;;3.55;86.50;100734.06;4445743;32;20115;-75
2021/01/14 10:19:47;;;;;;;13.60;5.62;;;;;;;3.98;85.50;100765.63;3974298;32;15051494;-75
2021/01/14 10:22:14;;;;;;;11.88;6.03;;;;;;;3.98;85.50;100765.63;4430692;32;20037;-73
2021/01/14 10:24:40;;;;;;;18.40;7.55;;;;;;;3.60;86.41;100760.72;4437710;32;20098;-74
2021/01/14 10:29:55;;;;;;;21.60;8.70;;;;;;;3.68;86.28;100768.69;3985382;32;15043389;-75
2021/01/14 10:32:23;;;;;;;15.07;6.87;;;;;;;3.71;86.38;100783.81;4433131;32;20072;-74
2021/01/14 10:34:52;;;;;;;14.80;7.35;;;;;;;3.70;86.17;100776.66;4432532;32;20072;-73
2021/01/14 10:40:00;;;;;;;16.45;7.45;;;;;;;4.26;85.07;100790.75;3981856;32;15061064;-73
2021/01/14 10:45:12;;;;;;;11.77;5.65;;;;;;;4.31;84.83;100815.44;3972545;32;15026722;-75
2021/01/14 10:47:40;;;;;;;10.82;5.97;;;;;;;4.31;84.83;100815.44;4431287;32;20120;-75
2021/01/14 10:53:02;;;;;;;13.00;6.80;;;;;;;4.33;84.20;100828.97;3983950;32;15024730;-77
2021/01/14 10:55:28;;;;;;;14.85;7.25;;;;;;;4.33;84.20;100828.97;4433571;32;20074;-78
2021/01/14 10:57:56;;;;;;;20.40;10.18;;;;;;;3.89;85.31;100827.25;4439212;32;20045;-79
2021/01/14 11:00:23;;;;;;;17.65;9.93;;;;;;;3.90;85.72;100828.03;4435209;32;20108;-74
2021/01/14 11:03:10;;;;;;;16.50;9.23;;;;;;;3.96;85.58;100832.81;4437607;32;20364;-77
2021/01/14 11:08:19;;;;;;;20.77;11.60;;;;;;;4.42;84.60;100855.25;3987935;32;15023195;-77
2021/01/14 11:10:47;;;;;;;20.50;10.85;;;;;;;4.42;84.60;100855.25;4433556;32;20112;-76
2021/01/14 11:13:15;;;;;;;19.02;9.25;;;;;;;4.03;85.15;100851.56;4439137;32;20090;-76
2021/01/14 11:15:42;;;;;;;18.92;9.00;;;;;;;4.00;84.89;100852.34;4442361;32;20107;-76
2021/01/14 11:18:09;;;;;;;18.92;8.45;;;;;;;3.98;85.16;100849.94;4436549;32;20117;-76
2021/01/14 11:20:35;;;;;;;20.12;10.43;;;;;;;4.02;85.03;100864.69;4441200;32;20041;-76
2021/01/14 11:23:01;;;;;;;17.92;8.70;;;;;;;4.05;85.13;100863.09;4439804;32;20037;-79
2021/01/14 11:25:27;;;;;;;17.58;7.87;;;;;;;4.03;84.51;100876.63;4427351;32;20068;-75
2021/01/14 11:27:53;;;;;;;18.77;7.70;;;;;;;4.08;84.76;100867.87;4431984;32;20029;-76
2021/01/14 11:30:20;;;;;;;10.82;5.32;;;;;;;4.08;84.90;100873.44;4435814;32;20077;-77
2021/01/14 11:32:46;;;;;;;8.02;4.37;;;;;;;4.15;84.70;100881.84;4436049;32;20498;-79
2021/01/14 11:35:13;;;;;;;13.68;5.50;;;;;;;3.99;84.00;100884.94;4422731;32;20084;-77
2021/01/14 11:37:39;;;;;;;8.65;4.32;;;;;;;4.05;84.73;100894.53;4420118;32;20068;-78
2021/01/14 11:40:05;;;;;;;11.45;5.05;;;;;;;4.08;84.71;100892.94;4420012;32;20525;-76
2021/01/14 11:42:31;;;;;;;12.68;5.50;;;;;;;4.13;85.07;100898.13;4422764;32;20067;-78
2021/01/14 11:44:57;;;;;;;8.80;4.45;;;;;;;4.18;84.74;100897.78;4423605;32;20047;-78
2021/01/14 11:47:22;;;;;;;6.72;3.75;;;;;;;4.14;84.67;100894.16;4424450;32;20064;-78
2021/01/14 11:49:48;;;;;;;7.97;3.70;;;;;;;4.14;84.68;100902.50;4425800;32;20064;-76
2021/01/14 11:52:15;;;;;;;8.68;4.45;;;;;;;4.11;84.44;100908.88;4422167;32;20026;-76
2021/01/14 11:54:42;;;;;;;15.73;4.55;;;;;;;4.18;84.41;100913.69;4418897;32;20018;-75
2021/01/14 11:57:09;;;;;;;9.20;4.05;;;;;;;4.18;84.55;100908.09;4421550;32;20049;-81
2021/01/14 11:59:35;;;;;;;9.20;4.28;;;;;;;4.21;84.71;100910.91;4418158;32;20109;-79
2021/01/14 12:02:00;;;;;;;9.02;4.97;;;;;;;4.19;84.87;100918.84;4419401;32;20017;-76
2021/01/14 12:04:26;;;;;;;8.57;4.68;;;;;;;4.24;84.65;100915.72;4427466;32;20034;-78
2021/01/14 12:06:53;;;;;;;10.40;4.78;;;;;;;4.20;83.85;100923.22;4423223;32;20088;-78
2021/01/14 12:09:19;;;;;;;12.37;5.78;;;;;;;4.14;83.96;100920.03;4419676;32;20095;-78
2021/01/14 12:11:44;;;;;;;10.80;4.90;;;;;;;4.05;83.94;100929.91;4418754;32;20046;-77
2021/01/14 12:14:10;;;;;;;12.05;5.50;;;;;;;4.00;84.17;100924.75;4426221;32;20072;-75
2021/01/14 12:16:36;;;;;;;12.50;5.93;;;;;;;4.00;84.49;100945.03;4421091;32;20050;-77
2021/01/14 12:19:01;;;;;;;20.27;6.55;;;;;;;4.08;84.68;100945.84;4413451;32;20026;-75
2021/01/14 12:21:27;;;;;;;11.05;5.70;;;;;;;4.08;84.58;100938.31;4414932;32;20060;-78
2021/01/14 12:23:53;;;;;;;18.12;6.53;;;;;;;4.08;84.53;100940.28;4414337;32;20097;-78
2021/01/14 12:26:19;;;;;;;15.45;7.32;;;;;;;4.01;84.98;100948.59;4411425;32;20141;-76
2021/01/14 12:28:46;;;;;;;12.65;6.37;;;;;;;3.86;85.05;100946.91;4411054;32;20535;-76
2021/01/14 12:31:12;;;;;;;19.48;7.35;;;;;;;3.98;84.82;100941.03;4416168;32;20436;-77
2021/01/14 12:33:38;;;;;;;12.55;6.18;;;;;;;4.00;84.74;100939.47;4411906;32;20034;-77
2021/01/14 12:36:05;;;;;;;15.95;7.47;;;;;;;3.95;84.82;100950.97;4411171;32;20494;-73
2021/01/14 12:38:31;;;;;;;15.73;6.82;;;;;;;3.83;84.87;100947.69;4408413;32;20127;-76
2021/01/14 12:40:56;;;;;;;15.93;7.12;;;;;;;3.85;85.05;100943.34;4414699;32;20062;-73
2021/01/14 12:43:22;;;;;;;18.23;7.60;;;;;;;3.86;85.07;100952.47;4411920;32;20080;-76
2021/01/14 12:45:50;;;;;;;16.10;7.12;;;;;;;3.90;85.30;100950.53;4406260;32;20042;-74
2021/01/14 12:48:18;;;;;;;15.77;7.93;;;;;;;3.86;84.96;100960.84;4412397;32;20026;-75
2021/01/14 12:50:44;;;;;;;27.90;10.15;;;;;;;3.88;85.20;100955.69;4410658;32;20109;-75
2021/01/14 12:53:10;;;;;;;18.95;9.23;;;;;;;3.91;85.15;100960.47;4411269;32;20035;-76
2021/01/14 12:55:37;;;;;;;20.90;10.25;;;;;;;3.95;85.18;100967.66;4407322;32;20098;-77
2021/01/14 12:58:04;;;;;;;21.60;10.55;;;;;;;3.92;84.85;100964.84;4412245;32;20034;-74
2021/01/14 13:00:29;;;;;;;24.15;11.70;;;;;;;3.91;84.38;100961.28;4407180;32;20152;-76
2021/01/14 13:02:56;;;;;;;26.65;12.82;;;;;;;3.95;85.06;100967.66;4410754;32;20061;-74
2021/01/14 13:05:22;;;;;;;32.20;15.05;;;;;;;4.00;85.15;100960.94;4407092;32;20094;-74
2021/01/14 13:07:48;;;;;;;28.92;12.52;;;;;;;3.97;85.05;100973.66;4414220;32;20087;-73
2021/01/14 13:10:14;;;;;;;27.17;11.52;;;;;;;3.90;85.38;100978.38;4410057;32;20061;-76
2021/01/14 13:12:39;;;;;;;21.85;9.90;;;;;;;3.89;85.77;100976.75;4410811;32;20099;-72
2021/01/14 13:15:05;;;;;;;22.77;10.73;;;;;;;3.80;85.52;100977.09;4413692;32;20091;-74
2021/01/14 13:17:31;;;;;;;27.42;11.18;;;;;;;3.77;85.62;100977.06;4407546;32;20143;-74
2021/01/14 13:19:58;;;;;;;26.17;11.45;;;;;;;3.89;85.50;100980.34;4412569;32;20030;-76
2021/01/14 13:22:23;;;;;;;33.53;12.40;;;;;;;3.95;85.59;100978.00;4408203;32;20466;-76
2021/01/14 13:24:49;;;;;;;28.50;11.95;;;;;;;3.98;85.13;100991.94;4409564;32;20124;-74
2021/01/14 13:27:16;;;;;;;28.92;11.85;;;;;;;3.98;84.96;100988.34;4414098;32;20038;-76
2021/01/14 13:29:42;;;;;;;30.17;13.18;;;;;;;4.06;85.12;100982.44;4411372;32;20071;-76